createdAt,value
2016-04-16T00:00:36.930Z,999.3
2016-04-16T00:01:35.371Z,999.28
2016-04-16T00:02:35.358Z,999.28
2016-04-16T00:03:35.345Z,999.28
2016-04-16T00:04:36.067Z,999.33
2016-04-16T00:05:35.335Z,999.34
2016-04-16T00:06:35.338Z,999.34
2016-04-16T00:07:35.324Z,999.36
2016-04-16T00:08:35.312Z,999.33
2016-04-16T00:09:36.018Z,999.31
2016-04-16T00:10:35.301Z,999.33
2016-04-16T00:11:35.288Z,999.32
2016-04-16T00:12:35.290Z,999.33
2016-04-16T00:13:35.278Z,999.31
2016-04-16T00:14:35.265Z,999.29
2016-04-16T00:15:35.268Z,999.31
2016-04-16T00:16:35.255Z,999.3
2016-04-16T00:17:35.243Z,999.28
2016-04-16T00:18:35.245Z,999.3
2016-04-16T00:19:35.248Z,999.29
2016-04-16T00:20:35.219Z,999.3
2016-04-16T00:21:35.222Z,999.26
2016-04-16T00:22:35.225Z,999.29
2016-04-16T00:23:35.196Z,999.27
2016-04-16T00:24:35.199Z,999.29
2016-04-16T00:25:35.201Z,999.22
2016-04-16T00:26:35.189Z,999.17
2016-04-16T00:27:35.191Z,999.2
2016-04-16T00:28:35.178Z,999.17
2016-04-16T00:29:35.165Z,999.16
2016-04-16T00:30:35.152Z,999.14
2016-04-16T00:31:35.155Z,999.14
2016-04-16T00:32:35.141Z,999.12
2016-04-16T00:33:35.129Z,999.09
2016-04-16T00:34:35.132Z,999.06
2016-04-16T00:35:35.119Z,999.07
2016-04-16T00:36:35.122Z,999.02
2016-04-16T00:37:35.108Z,999.02
2016-04-16T00:38:35.096Z,999.06
2016-04-16T00:39:35.098Z,999.05
2016-04-16T00:40:35.085Z,999.09
2016-04-16T00:41:35.072Z,999.12
2016-04-16T00:42:35.074Z,999.07
2016-04-16T00:43:35.062Z,999.08
2016-04-16T00:44:35.048Z,999.07
2016-04-16T00:45:35.051Z,999.09
2016-04-16T00:46:35.039Z,999.03
2016-04-16T00:47:35.026Z,999.03
2016-04-16T00:48:35.029Z,999.04
2016-04-16T00:49:35.016Z,999.02
2016-04-16T00:50:35.018Z,999.01
2016-04-16T00:51:35.006Z,999.02
2016-04-16T00:52:35.008Z,999.03
2016-04-16T00:53:34.996Z,999.08
2016-04-16T00:54:34.982Z,999.1
2016-04-16T00:55:34.985Z,999.1
2016-04-16T00:56:34.973Z,999.08
2016-04-16T00:57:34.959Z,999.06
2016-04-16T00:58:34.962Z,999.05
2016-04-16T00:59:34.949Z,999.05
2016-04-16T01:00:34.936Z,999.06
2016-04-16T01:01:34.938Z,999.07
2016-04-16T01:02:34.925Z,999.04
2016-04-16T01:03:34.928Z,999.02
2016-04-16T01:04:34.916Z,998.97
2016-04-16T01:05:34.903Z,998.95
2016-04-16T01:06:34.889Z,998.91
2016-04-16T01:07:34.892Z,998.89
2016-04-16T01:08:34.879Z,998.87
2016-04-16T01:09:34.882Z,998.91
2016-04-16T01:10:34.869Z,998.89
2016-04-16T01:11:35.809Z,998.91
2016-04-16T01:12:34.859Z,998.87
2016-04-16T01:13:34.845Z,998.88
2016-04-16T01:14:34.849Z,998.85
2016-04-16T01:15:34.867Z,998.85
2016-04-16T01:16:34.823Z,998.89
2016-04-16T01:17:34.825Z,998.89
2016-04-16T01:18:35.812Z,998.84
2016-04-16T01:19:34.815Z,998.89
2016-04-16T01:21:34.790Z,998.83
2016-04-16T01:22:34.792Z,998.83
2016-04-16T01:23:34.779Z,998.81
2016-04-16T01:24:34.781Z,998.79
2016-04-16T01:25:34.769Z,998.79
2016-04-16T01:26:34.755Z,998.81
2016-04-16T01:27:34.742Z,998.78
2016-04-16T01:28:35.339Z,998.8
2016-04-16T01:29:34.889Z,998.82
2016-04-16T01:30:34.735Z,998.79
2016-04-16T01:31:34.722Z,998.79
2016-04-16T01:32:34.725Z,998.77
2016-04-16T01:33:34.711Z,998.73
2016-04-16T01:34:34.699Z,998.72
2016-04-16T01:35:34.686Z,998.7
2016-04-16T01:36:34.688Z,998.74
2016-04-16T01:37:34.676Z,998.72
2016-04-16T01:38:34.663Z,998.76
2016-04-16T01:39:34.665Z,998.75
2016-04-16T01:40:34.668Z,998.75
2016-04-16T01:41:34.655Z,998.78
2016-04-16T01:42:34.642Z,998.77
2016-04-16T01:43:34.645Z,998.75
2016-04-16T01:44:34.632Z,998.77
2016-04-16T01:45:34.635Z,998.74
2016-04-16T01:46:34.622Z,998.78
2016-04-16T01:47:34.610Z,998.77
2016-04-16T01:48:34.612Z,998.73
2016-04-16T01:49:34.599Z,998.76
2016-04-16T01:50:34.586Z,998.71
2016-04-16T01:51:34.589Z,998.7
2016-04-16T01:52:34.575Z,998.73
2016-04-16T01:53:34.562Z,998.72
2016-04-16T01:54:34.565Z,998.75
2016-04-16T01:55:34.553Z,998.73
2016-04-16T01:56:34.540Z,998.73
2016-04-16T01:57:34.542Z,998.69
2016-04-16T01:58:34.529Z,998.7
2016-04-16T01:59:34.531Z,998.65
2016-04-16T02:00:34.519Z,998.67
2016-04-16T02:01:34.521Z,998.65
2016-04-16T02:02:34.508Z,998.61
2016-04-16T02:03:34.500Z,998.63
2016-04-16T02:04:34.486Z,998.62
2016-04-16T02:05:34.489Z,998.62
2016-04-16T02:06:34.476Z,998.62
2016-04-16T02:07:34.479Z,998.65
2016-04-16T02:08:34.466Z,998.64
2016-04-16T02:09:34.469Z,998.66
2016-04-16T02:10:34.456Z,998.64
2016-04-16T02:11:34.443Z,998.62
2016-04-16T02:12:34.431Z,998.62
2016-04-16T02:13:34.433Z,998.63
2016-04-16T02:14:34.420Z,998.65
2016-04-16T02:15:34.422Z,998.63
2016-04-16T02:16:34.410Z,998.66
2016-04-16T02:17:34.412Z,998.62
2016-04-16T02:18:34.399Z,998.62
2016-04-16T02:19:34.386Z,998.62
2016-04-16T02:20:34.389Z,998.64
2016-04-16T02:21:34.376Z,998.66
2016-04-16T02:22:34.366Z,998.6
2016-04-16T02:23:34.368Z,998.59
2016-04-16T02:24:34.355Z,998.61
2016-04-16T02:25:34.342Z,998.58
2016-04-16T02:26:34.345Z,998.6
2016-04-16T02:27:35.254Z,998.62
2016-04-16T02:28:34.334Z,998.57
2016-04-16T02:29:34.322Z,998.58
2016-04-16T02:30:34.324Z,998.53
2016-04-16T02:31:34.312Z,998.52
2016-04-16T02:32:34.298Z,998.52
2016-04-16T02:33:34.301Z,998.52
2016-04-16T02:34:34.288Z,998.49
2016-04-16T02:35:34.275Z,998.49
2016-04-16T02:36:34.278Z,998.49
2016-04-16T02:38:34.268Z,998.5
2016-04-16T02:39:34.739Z,998.45
2016-04-16T02:40:34.805Z,998.48
2016-04-16T02:41:34.900Z,998.48
2016-04-16T02:42:34.231Z,998.42
2016-04-16T02:43:34.218Z,998.42
2016-04-16T02:44:34.262Z,998.42
2016-04-16T02:45:34.292Z,998.42
2016-04-16T02:46:34.337Z,998.38
2016-04-16T02:47:34.368Z,998.36
2016-04-16T02:48:34.413Z,998.36
2016-04-16T02:49:35.010Z,998.37
2016-04-16T02:50:34.450Z,998.36
2016-04-16T02:51:34.436Z,998.36
2016-04-16T02:52:34.439Z,998.32
2016-04-16T02:53:34.442Z,998.28
2016-04-16T02:54:34.450Z,998.29
2016-04-16T02:55:34.458Z,998.31
2016-04-16T02:56:34.436Z,998.27
2016-04-16T02:57:34.444Z,998.29
2016-04-16T02:58:34.452Z,998.28
2016-04-16T02:59:34.441Z,998.27
2016-04-16T03:00:34.431Z,998.28
2016-04-16T03:01:34.435Z,998.3
2016-04-16T03:02:34.425Z,998.22
2016-04-16T03:03:34.413Z,998.2
2016-04-16T03:04:34.416Z,998.18
2016-04-16T03:05:34.420Z,998.13
2016-04-16T03:06:34.392Z,998.13
2016-04-16T03:07:34.396Z,998.13
2016-04-16T03:08:34.383Z,998.14
2016-04-16T03:09:34.386Z,998.08
2016-04-16T03:10:34.374Z,998.07
2016-04-16T03:11:34.362Z,998.06
2016-04-16T03:12:34.365Z,998.1
2016-04-16T03:13:34.353Z,998.1
2016-04-16T03:14:34.339Z,998.08
2016-04-16T03:15:34.342Z,998.11
2016-04-16T03:16:34.329Z,998.1
2016-04-16T03:17:34.331Z,998.08
2016-04-16T03:18:34.319Z,998.07
2016-04-16T03:19:34.321Z,998.03
2016-04-16T03:20:34.325Z,998.04
2016-04-16T03:21:34.311Z,998.05
2016-04-16T03:22:34.298Z,998.06
2016-04-16T03:23:34.285Z,998.08
2016-04-16T03:24:34.288Z,998.04
2016-04-16T03:25:34.274Z,998.05
2016-04-16T03:26:34.262Z,998.01
2016-04-16T03:27:34.265Z,998.02
2016-04-16T03:28:34.268Z,998.03
2016-04-16T03:29:34.239Z,998.01
2016-04-16T03:30:34.241Z,998.01
2016-04-16T03:31:34.229Z,998.01
2016-04-16T03:32:34.216Z,998.02
2016-04-16T03:33:34.218Z,998.02
2016-04-16T03:34:34.205Z,997.99
2016-04-16T03:35:34.332Z,998
2016-04-16T03:36:34.195Z,998
2016-04-16T03:37:34.198Z,998.01
2016-04-16T03:38:34.185Z,998.01
2016-04-16T03:39:34.172Z,997.99
2016-04-16T03:40:34.175Z,998
2016-04-16T03:41:34.162Z,998
2016-04-16T03:42:34.164Z,997.98
2016-04-16T03:43:34.152Z,998.03
2016-04-16T03:44:34.139Z,998
2016-04-16T03:45:34.142Z,998.02
2016-04-16T03:46:34.128Z,998
2016-04-16T03:48:34.415Z,998.02
2016-04-16T03:49:35.027Z,998.07
2016-04-16T03:50:34.108Z,998.05
2016-04-16T03:51:34.094Z,998.03
2016-04-16T03:52:37.098Z,998.09
2016-04-16T03:53:34.085Z,998.1
2016-04-16T03:54:34.088Z,998.08
2016-04-16T04:09:04.015Z,998.01
2016-04-16T04:10:39.943Z,998
2016-04-16T04:11:15.680Z,998.01
2016-04-16T04:12:49.854Z,998.03
2016-04-16T04:14:24.031Z,998.04
2016-04-16T04:15:24.019Z,998.06
2016-04-16T04:16:24.006Z,998.03
2016-04-16T04:17:23.992Z,998.03
2016-04-16T04:18:23.995Z,998.05
2016-04-16T04:19:36.717Z,998.04
2016-04-16T04:22:11.317Z,997.99
2016-04-16T04:24:34.308Z,997.99
2016-04-16T04:25:53.499Z,997.99
2016-04-16T04:26:50.813Z,998.02
2016-04-16T04:27:38.066Z,998.02
2016-04-16T06:24:32.931Z,998.49
2016-04-16T06:25:32.918Z,998.39
2016-04-16T06:26:32.937Z,998.35
2016-04-16T06:27:32.939Z,998.34
2016-04-16T06:28:32.941Z,998.31
2016-04-16T06:29:32.929Z,998.32
2016-04-16T06:30:32.931Z,998.39
2016-04-16T06:31:32.934Z,998.43
2016-04-16T06:32:32.936Z,998.44
2016-04-16T06:33:32.939Z,998.48
2016-04-16T06:34:32.958Z,998.51
2016-04-16T06:35:32.944Z,998.56
2016-04-16T06:36:32.948Z,998.52
2016-04-16T06:37:32.950Z,998.57
2016-04-16T06:38:32.953Z,998.52
2016-04-16T06:39:32.955Z,998.51
2016-04-16T06:40:32.958Z,998.59
2016-04-16T06:41:32.961Z,998.64
2016-04-16T06:42:32.964Z,998.63
2016-04-16T06:43:32.967Z,998.7
2016-04-16T06:44:32.969Z,998.54
2016-04-16T06:45:32.972Z,998.54
2016-04-16T06:46:32.974Z,998.44
2016-04-16T06:47:32.977Z,998.43
2016-04-16T06:48:32.980Z,998.43
2016-04-16T06:49:32.982Z,998.45
2016-04-16T06:50:32.985Z,998.5
2016-04-16T06:51:32.988Z,998.48
2016-04-16T06:52:32.976Z,998.54
2016-04-16T06:53:32.993Z,998.53
2016-04-16T06:54:32.981Z,998.8
2016-04-16T06:55:32.999Z,999.1
2016-04-16T06:56:32.986Z,998.74
2016-04-16T06:57:32.989Z,998.59
2016-04-16T06:58:32.992Z,998.58
2016-04-16T06:59:32.994Z,998.56
2016-04-16T07:00:32.997Z,998.67
2016-04-16T07:01:33.000Z,998.79
2016-04-16T07:02:32.986Z,999.08
2016-04-16T07:03:33.005Z,998.79
2016-04-16T07:04:33.008Z,998.73
2016-04-16T07:06:32.997Z,998.68
2016-04-16T07:07:33.016Z,998.85
2016-04-16T07:08:33.362Z,998.87
2016-04-16T07:09:33.021Z,998.98
2016-04-16T07:10:33.835Z,999.75
2016-04-16T07:11:33.027Z,999.79
2016-04-16T07:12:33.233Z,999.86
2016-04-16T07:13:33.234Z,999.82
2016-04-16T07:14:33.019Z,999.82
2016-04-16T07:15:33.037Z,999.81
2016-04-16T07:16:33.040Z,999.96
2016-04-16T07:17:34.090Z,999
2016-04-16T07:18:33.045Z,999.14
2016-04-16T07:19:33.829Z,998.87
2016-04-16T07:20:33.050Z,999.1
2016-04-16T07:21:33.053Z,999.66
2016-04-16T07:22:33.071Z,999.06
2016-04-16T07:23:33.073Z,999.14
2016-04-16T07:24:33.201Z,998.71
2016-04-16T07:25:33.079Z,998.62
2016-04-16T07:26:33.098Z,998.78
2016-04-16T07:27:33.100Z,998.68
2016-04-16T07:28:33.103Z,998.61
2016-04-16T07:29:33.106Z,998.61
2016-04-16T07:30:33.125Z,998.81
2016-04-16T07:31:33.128Z,999.02
2016-04-16T07:32:33.130Z,998.98
2016-04-16T07:33:33.133Z,998.71
2016-04-16T07:34:33.150Z,998.58
2016-04-16T07:35:33.153Z,998.81
2016-04-16T07:36:33.156Z,998.73
2016-04-16T07:37:33.158Z,998.64
2016-04-16T07:38:33.161Z,998.62
2016-04-16T07:39:33.195Z,998.59
2016-04-16T07:40:33.198Z,998.58
2016-04-16T07:41:33.202Z,998.56
2016-04-16T07:42:33.203Z,998.56
2016-04-16T07:43:33.206Z,998.59
2016-04-16T07:44:33.224Z,998.64
2016-04-16T07:45:33.227Z,998.57
2016-04-16T07:46:33.230Z,998.6
2016-04-16T07:47:33.249Z,998.6
2016-04-16T07:48:33.251Z,998.59
2016-04-16T07:49:33.254Z,998.52
2016-04-16T07:50:33.256Z,998.5
2016-04-16T07:51:33.274Z,998.5
2016-04-16T07:52:33.277Z,998.46
2016-04-16T07:53:33.296Z,998.43
2016-04-16T07:54:33.298Z,998.4
2016-04-16T07:55:33.317Z,998.44
2016-04-16T07:56:33.320Z,998.49
2016-04-16T07:57:33.323Z,998.59
2016-04-16T07:58:33.324Z,998.59
2016-04-16T07:59:33.342Z,998.56
2016-04-16T08:00:33.346Z,998.59
2016-04-16T08:01:33.348Z,998.53
2016-04-16T08:02:33.366Z,998.51
2016-04-16T08:03:33.369Z,998.49
2016-04-16T08:04:33.372Z,998.43
2016-04-16T08:05:33.391Z,998.43
2016-04-16T08:06:33.393Z,998.44
2016-04-16T08:07:33.396Z,998.44
2016-04-16T08:08:33.414Z,998.34
2016-04-16T08:09:33.417Z,998.36
2016-04-16T08:10:33.419Z,998.35
2016-04-16T08:11:33.438Z,998.35
2016-04-16T08:12:33.440Z,998.4
2016-04-16T08:13:33.443Z,998.34
2016-04-16T08:14:33.446Z,998.33
2016-04-16T08:16:33.467Z,998.28
2016-04-16T08:17:33.474Z,998.29
2016-04-16T08:18:33.477Z,998.28
2016-04-16T08:19:33.590Z,998.26
2016-04-16T08:20:33.498Z,998.25
2016-04-16T08:21:33.531Z,998.23
2016-04-16T08:22:33.504Z,998.22
2016-04-16T08:23:33.522Z,998.28
2016-04-16T08:24:33.525Z,998.27
2016-04-16T08:26:33.576Z,998.24
2016-04-16T08:27:34.033Z,998.26
2016-04-16T08:28:33.550Z,998.3
2016-04-16T08:29:33.553Z,998.29
2016-04-16T08:30:33.556Z,998.26
2016-04-16T08:31:33.997Z,998.26
2016-04-16T08:32:33.561Z,998.21
2016-04-16T08:33:33.564Z,998.16
2016-04-16T08:35:35.069Z,998
2016-04-16T08:36:33.603Z,998.02
2016-04-16T08:37:33.591Z,997.92
2016-04-16T08:38:33.608Z,997.89
2016-04-16T08:39:33.611Z,997.91
2016-04-16T08:40:33.614Z,997.91
2016-04-16T08:41:33.616Z,998.01
2016-04-16T08:42:33.619Z,997.96
2016-04-16T08:43:33.622Z,997.95
2016-04-16T08:44:33.625Z,997.96
2016-04-16T08:45:33.628Z,997.94
2016-04-16T08:46:33.630Z,997.99
2016-04-16T08:47:33.633Z,997.93
2016-04-16T08:48:33.635Z,997.94
2016-04-16T08:49:33.638Z,997.94
2016-04-16T08:50:33.657Z,997.92
2016-04-16T08:51:33.660Z,997.96
2016-04-16T08:52:33.662Z,997.95
2016-04-16T08:53:33.665Z,998.01
2016-04-16T08:54:33.668Z,997.98
2016-04-16T08:55:33.670Z,998.03
2016-04-16T08:56:33.657Z,998.02
2016-04-16T08:57:33.659Z,998.03
2016-04-16T08:58:33.678Z,997.98
2016-04-16T08:59:33.680Z,997.98
2016-04-16T09:00:33.684Z,998
2016-04-16T09:01:33.670Z,998
2016-04-16T09:02:33.673Z,998.02
2016-04-16T09:03:33.676Z,998.02
2016-04-16T09:04:33.678Z,998
2016-04-16T09:05:33.681Z,998
2016-04-16T09:06:33.763Z,998.02
2016-04-16T09:07:33.687Z,997.98
2016-04-16T09:08:33.689Z,997.97
2016-04-16T09:09:33.692Z,997.92
2016-04-16T09:10:33.694Z,997.98
2016-04-16T09:11:33.697Z,997.97
2016-04-16T09:12:33.685Z,997.98
2016-04-16T09:13:33.687Z,997.97
2016-04-16T09:14:33.705Z,997.96
2016-04-16T09:15:33.693Z,998.02
2016-04-16T09:16:33.696Z,997.98
2016-04-16T09:17:33.699Z,997.96
2016-04-16T09:18:33.700Z,998.04
2016-04-16T09:19:33.703Z,998.07
2016-04-16T09:20:33.706Z,998
2016-04-16T09:21:33.724Z,998.04
2016-04-16T09:22:33.711Z,998.08
2016-04-16T09:23:33.699Z,998.15
2016-04-16T09:24:33.701Z,998.2
2016-04-16T09:25:33.704Z,998.25
2016-04-16T09:26:33.706Z,998.35
2016-04-16T09:27:33.709Z,998.39
2016-04-16T09:28:33.712Z,998.42
2016-04-16T09:29:33.715Z,998.44
2016-04-16T09:30:33.703Z,998.51
2016-04-16T09:31:33.720Z,998.54
2016-04-16T09:32:33.708Z,998.5
2016-04-16T09:33:33.725Z,998.52
2016-04-16T09:34:33.759Z,998.56
2016-04-16T09:35:33.715Z,998.61
2016-04-16T09:36:34.905Z,998.63
2016-04-16T09:38:33.724Z,998.6
2016-04-16T09:39:33.727Z,998.62
2016-04-16T09:40:33.729Z,998.56
2016-04-16T09:41:33.716Z,998.64
2016-04-16T09:42:33.827Z,998.62
2016-04-16T09:43:33.721Z,998.66
2016-04-16T09:44:34.426Z,998.62
2016-04-16T09:45:34.226Z,998.63
2016-04-16T09:46:33.729Z,998.64
2016-04-16T09:47:33.732Z,998.67
2016-04-16T09:48:33.734Z,998.72
2016-04-16T09:49:33.737Z,998.71
2016-04-16T09:50:33.740Z,998.67
2016-04-16T09:51:33.774Z,998.68
2016-04-16T09:52:33.746Z,998.69
2016-04-16T09:53:33.732Z,998.64
2016-04-16T09:54:33.735Z,998.67
2016-04-16T09:55:34.284Z,998.67
2016-04-16T09:56:33.756Z,998.63
2016-04-16T09:57:33.743Z,998.58
2016-04-16T09:58:34.105Z,998.59
2016-04-16T09:59:33.748Z,998.57
2016-04-16T10:00:33.750Z,998.57
2016-04-16T10:01:33.754Z,998.56
2016-04-16T10:02:33.757Z,998.58
2016-04-16T10:03:33.759Z,998.6
2016-04-16T10:04:33.761Z,998.59
2016-04-16T10:05:33.764Z,998.65
2016-04-16T10:06:33.767Z,998.63
2016-04-16T10:07:33.755Z,998.63
2016-04-16T10:08:33.758Z,998.62
2016-04-16T10:09:33.760Z,998.72
2016-04-16T10:10:33.763Z,998.69
2016-04-16T10:11:33.766Z,998.68
2016-04-16T10:12:33.768Z,998.67
2016-04-16T10:13:33.771Z,998.69
2016-04-16T10:14:33.774Z,998.68
2016-04-16T10:15:33.761Z,998.64
2016-04-16T10:16:33.763Z,998.67
2016-04-16T10:17:33.766Z,998.67
2016-04-16T10:18:33.768Z,998.71
2016-04-16T10:19:33.771Z,998.73
2016-04-16T10:20:33.773Z,998.76
2016-04-16T10:21:33.760Z,998.75
2016-04-16T10:22:33.779Z,998.78
2016-04-16T10:23:33.766Z,998.79
2016-04-16T10:24:33.769Z,998.77
2016-04-16T10:25:33.771Z,998.76
2016-04-16T10:26:33.774Z,998.76
2016-04-16T10:27:33.776Z,998.76
2016-04-16T10:28:33.779Z,998.73
2016-04-16T10:29:33.781Z,998.73
2016-04-16T10:30:33.769Z,998.74
2016-04-16T10:31:33.772Z,998.76
2016-04-16T10:32:33.775Z,998.76
2016-04-16T10:33:33.777Z,998.78
2016-04-16T10:34:33.780Z,998.81
2016-04-16T10:35:33.783Z,998.83
2016-04-16T10:36:33.786Z,998.83
2016-04-16T10:37:33.773Z,998.87
2016-04-16T10:38:33.791Z,998.84
2016-04-16T10:39:33.778Z,998.84
2016-04-16T10:40:33.780Z,998.87
2016-04-16T10:41:33.799Z,998.85
2016-04-16T10:42:33.786Z,998.86
2016-04-16T10:43:33.805Z,998.79
2016-04-16T10:44:33.791Z,998.82
2016-04-16T10:45:33.779Z,998.84
2016-04-16T10:46:33.782Z,998.89
2016-04-16T10:47:33.799Z,998.88
2016-04-16T10:48:33.787Z,998.87
2016-04-16T10:49:33.789Z,998.85
2016-04-16T10:50:33.792Z,998.86
2016-04-16T10:51:33.794Z,998.87
2016-04-16T10:52:33.797Z,998.87
2016-04-16T10:53:34.362Z,998.86
2016-04-16T10:54:33.803Z,998.89
2016-04-16T10:55:33.789Z,998.87
2016-04-16T10:56:33.808Z,998.86
2016-04-16T10:57:33.795Z,998.83
2016-04-16T10:58:34.064Z,998.8
2016-04-16T10:59:33.801Z,998.8
2016-04-16T11:00:33.804Z,998.78
2016-04-16T11:01:33.806Z,998.76
2016-04-16T11:03:34.561Z,998.8
2016-04-16T11:04:34.736Z,998.81
2016-04-16T11:05:33.816Z,998.78
2016-04-16T11:07:34.228Z,998.78
2016-04-16T11:08:33.825Z,998.79
2016-04-16T11:09:33.828Z,998.78
2016-04-16T11:10:33.830Z,998.79
2016-04-16T11:11:34.989Z,998.73
2016-04-16T11:12:33.851Z,998.67
2016-04-16T11:13:33.838Z,998.71
2016-04-16T11:14:33.840Z,998.62
2016-04-16T11:15:33.827Z,998.62
2016-04-16T11:16:34.549Z,998.62
2016-04-16T11:17:33.849Z,998.68
2016-04-16T11:18:34.101Z,998.79
2016-04-16T11:19:34.041Z,998.84
2016-04-16T11:20:33.857Z,998.85
2016-04-16T11:21:33.860Z,998.84
2016-04-16T11:22:33.846Z,998.8
2016-04-16T11:23:33.865Z,998.83
2016-04-16T11:24:33.852Z,998.82
2016-04-16T11:25:33.870Z,998.85
2016-04-16T11:26:33.857Z,998.8
2016-04-16T11:27:33.876Z,998.85
2016-04-16T11:28:33.862Z,998.85
2016-04-16T11:29:33.865Z,998.84
2016-04-16T11:30:33.867Z,998.81
2016-04-16T11:31:33.871Z,998.84
2016-04-16T11:32:33.873Z,998.85
2016-04-16T11:33:33.876Z,998.86
2016-04-16T11:34:33.879Z,998.86
2016-04-16T11:35:33.881Z,998.93
2016-04-16T11:36:33.884Z,998.95
2016-04-16T11:37:33.872Z,998.94
2016-04-16T11:38:33.874Z,998.97
2016-04-16T11:39:33.877Z,998.92
2016-04-16T11:40:33.880Z,998.97
2016-04-16T11:41:33.882Z,998.94
2016-04-16T11:42:33.885Z,998.94
2016-04-16T11:43:33.888Z,998.98
2016-04-16T11:44:33.890Z,998.95
2016-04-16T11:45:33.893Z,998.95
2016-04-16T11:46:33.896Z,998.96
2016-04-16T11:47:33.898Z,999.06
2016-04-16T11:48:33.901Z,999
2016-04-16T11:49:33.888Z,999.04
2016-04-16T11:50:33.934Z,999.11
2016-04-16T11:51:33.981Z,999.18
2016-04-16T11:52:34.028Z,999.23
2016-04-16T11:53:34.074Z,999.23
2016-04-16T11:54:34.121Z,999.17
2016-04-16T11:55:34.141Z,999.23
2016-04-16T11:56:34.159Z,999.2
2016-04-16T11:57:34.177Z,999.28
2016-04-16T11:58:34.196Z,999.32
2016-04-16T11:59:34.198Z,999.29
2016-04-16T12:00:34.222Z,999.34
2016-04-16T12:01:34.232Z,999.42
2016-04-16T12:02:34.224Z,999.4
2016-04-16T12:03:34.232Z,999.35
2016-04-16T12:04:34.241Z,999.36
2016-04-16T12:05:34.261Z,999.3
2016-04-16T12:06:34.250Z,999.26
2016-04-16T12:07:34.256Z,999.28
2016-04-16T12:08:34.260Z,999.24
2016-04-16T12:09:34.266Z,999.26
2016-04-16T12:10:34.254Z,999.26
2016-04-16T12:11:34.258Z,999.28
2016-04-16T12:12:34.276Z,999.23
2016-04-16T12:13:34.279Z,999.23
2016-04-16T12:14:34.424Z,999.19
2016-04-16T12:15:34.630Z,999.15
2016-04-16T12:16:34.289Z,999.15
2016-04-16T12:17:34.278Z,999.14
2016-04-16T12:18:34.295Z,999.14
2016-04-16T12:19:34.284Z,999.16
2016-04-16T12:20:34.395Z,999.13
2016-04-16T12:21:35.179Z,999.12
2016-04-16T12:22:35.400Z,999.07
2016-04-16T12:23:34.294Z,999.08
2016-04-16T12:24:34.328Z,999.12
2016-04-16T12:25:34.800Z,999.15
2016-04-16T12:26:34.302Z,999.18
2016-04-16T12:27:34.805Z,999.13
2016-04-16T12:28:34.308Z,999.15
2016-04-16T12:29:34.419Z,999.16
2016-04-16T12:30:34.297Z,999.16
2016-04-16T12:32:34.866Z,999.16
2016-04-16T12:33:35.352Z,999.14
2016-04-16T12:34:34.307Z,999.18
2016-04-16T12:35:34.311Z,999.16
2016-04-16T12:36:34.313Z,999.13
2016-04-16T12:37:34.316Z,999.13
2016-04-16T12:38:34.319Z,999.15
2016-04-16T12:39:34.306Z,999.16
2016-04-16T12:40:34.324Z,999.15
2016-04-16T12:41:34.327Z,999.17
2016-04-16T12:42:34.329Z,999.21
2016-04-16T12:43:34.317Z,999.18
2016-04-16T12:44:34.320Z,999.22
2016-04-16T12:45:34.322Z,999.24
2016-04-16T12:46:34.325Z,999.24
2016-04-16T12:47:34.327Z,999.24
2016-04-16T12:48:34.331Z,999.26
2016-04-16T12:49:34.333Z,999.33
2016-04-16T12:50:34.336Z,999.3
2016-04-16T12:51:34.339Z,999.33
2016-04-16T12:52:34.341Z,999.3
2016-04-16T12:53:34.328Z,999.36
2016-04-16T12:54:34.330Z,999.26
2016-04-16T12:55:34.333Z,999.3
2016-04-16T12:56:34.336Z,999.29
2016-04-16T12:57:34.338Z,999.33
2016-04-16T12:58:34.325Z,999.33
2016-04-16T12:59:34.344Z,999.3
2016-04-16T13:00:34.331Z,999.34
2016-04-16T13:01:34.333Z,999.37
2016-04-16T13:02:34.336Z,999.38
2016-04-16T13:03:34.338Z,999.39
2016-04-16T13:04:34.341Z,999.37
2016-04-16T13:05:34.344Z,999.43
2016-04-16T13:06:34.347Z,999.44
2016-04-16T13:07:34.427Z,999.42
2016-04-16T13:08:34.352Z,999.44
2016-04-16T13:09:34.355Z,999.48
2016-04-16T13:10:34.357Z,999.4
2016-04-16T13:11:34.360Z,999.41
2016-04-16T13:12:34.363Z,999.45
2016-04-16T13:13:34.365Z,999.43
2016-04-16T13:14:34.369Z,999.47
2016-04-16T13:15:34.371Z,999.42
2016-04-16T13:16:34.373Z,999.44
2016-04-16T13:17:34.376Z,999.42
2016-04-16T13:18:34.364Z,999.43
2016-04-16T13:19:34.367Z,999.4
2016-04-16T13:20:34.370Z,999.4
2016-04-16T13:21:34.372Z,999.4
2016-04-16T13:22:34.406Z,999.44
2016-04-16T13:23:34.378Z,999.51
2016-04-16T13:24:34.380Z,999.49
2016-04-16T13:25:34.383Z,999.43
2016-04-16T13:26:34.386Z,999.48
2016-04-16T13:27:34.388Z,999.52
2016-04-16T13:28:34.391Z,999.51
2016-04-16T13:29:34.408Z,999.45
2016-04-16T13:30:34.396Z,999.41
2016-04-16T13:31:34.414Z,999.4
2016-04-16T13:32:34.416Z,999.34
2016-04-16T13:33:34.419Z,999.32
2016-04-16T13:35:34.410Z,999.18
2016-04-16T13:36:34.428Z,999.15
2016-04-16T13:37:34.446Z,999.09
2016-04-16T13:38:34.433Z,999.07
2016-04-16T13:39:34.435Z,999.1
2016-04-16T13:40:34.438Z,999.05
2016-04-16T13:41:34.441Z,999.03
2016-04-16T13:42:35.537Z,999.02
2016-04-16T13:43:34.447Z,998.95
2016-04-16T13:44:34.715Z,998.92
2016-04-16T13:45:34.452Z,998.9
2016-04-16T13:46:34.455Z,998.98
2016-04-16T13:47:34.457Z,999.06
2016-04-16T13:48:34.460Z,999.08
2016-04-16T13:49:34.462Z,999.15
2016-04-16T13:50:34.512Z,999.29
2016-04-16T13:51:34.467Z,999.31
2016-04-16T13:52:34.486Z,999.27
2016-04-16T13:53:34.833Z,999.31
2016-04-16T13:54:34.475Z,999.28
2016-04-16T13:55:34.478Z,999.27
2016-04-16T13:56:34.481Z,999.33
2016-04-16T13:57:34.484Z,999.38
2016-04-16T13:58:34.487Z,999.42
2016-04-16T13:59:34.489Z,999.39
2016-04-16T14:00:34.492Z,999.35
2016-04-16T14:01:34.495Z,999.34
2016-04-16T14:02:34.497Z,999.27
2016-04-16T14:03:34.500Z,999.25
2016-04-16T14:04:34.502Z,999.19
2016-04-16T14:05:34.505Z,999.15
2016-04-16T14:06:34.508Z,999.13
2016-04-16T14:07:34.511Z,999.06
2016-04-16T14:08:34.513Z,999.07
2016-04-16T14:09:34.516Z,999.01
2016-04-16T14:10:34.535Z,999.01
2016-04-16T14:11:34.537Z,999.08
2016-04-16T14:12:34.540Z,999.02
2016-04-16T14:13:34.542Z,999.01
2016-04-16T14:14:34.545Z,998.97
2016-04-16T14:15:34.548Z,998.88
2016-04-16T14:16:34.535Z,998.83
2016-04-16T14:17:34.553Z,998.82
2016-04-16T14:18:34.556Z,998.79
2016-04-16T14:19:34.543Z,998.79
2016-04-16T14:20:34.561Z,998.79
2016-04-16T14:21:34.564Z,998.82
2016-04-16T14:22:34.786Z,998.84
2016-04-16T14:23:34.570Z,998.82
2016-04-16T14:24:34.572Z,998.84
2016-04-16T14:25:34.575Z,998.84
2016-04-16T14:26:34.578Z,998.85
2016-04-16T14:27:34.581Z,998.86
2016-04-16T14:28:34.584Z,998.82
2016-04-16T14:29:34.586Z,998.75
2016-04-16T14:30:34.589Z,998.73
2016-04-16T14:31:34.591Z,998.72
2016-04-16T14:32:34.594Z,998.7
2016-04-16T14:33:34.597Z,998.73
2016-04-16T14:34:34.615Z,998.74
2016-04-16T14:35:34.602Z,998.74
2016-04-16T14:36:34.605Z,998.77
2016-04-16T14:37:34.608Z,998.68
2016-04-16T14:38:34.626Z,998.61
2016-04-16T14:39:34.612Z,998.56
2016-04-16T14:40:34.615Z,998.54
2016-04-16T14:41:34.618Z,998.5
2016-04-16T14:42:34.621Z,998.47
2016-04-16T14:43:34.623Z,998.46
2016-04-16T14:44:34.626Z,998.41
2016-04-16T14:45:34.629Z,998.44
2016-04-16T14:46:34.632Z,998.37
2016-04-16T14:47:34.634Z,998.42
2016-04-16T14:48:34.653Z,998.39
2016-04-16T14:49:34.640Z,998.45
2016-04-16T14:50:35.454Z,998.41
2016-04-16T14:51:35.051Z,998.41
2016-04-16T14:52:34.647Z,998.43
2016-04-16T14:53:35.103Z,998.49
2016-04-16T14:54:35.200Z,998.46
2016-04-16T14:55:34.656Z,998.45
2016-04-16T14:56:34.675Z,998.47
2016-04-16T14:57:34.662Z,998.42